sensor_id;sensor_type;location;lat;lon;timestamp;temperature;humidity
316;DHT22;14128;48.686;9.738;2022-12-18T00:01:32;-7.70;1.40
316;DHT22;14128;48.686;9.738;2022-12-18T00:04:01;-7.60;1.40
316;DHT22;14128;48.686;9.738;2022-12-18T00:06:29;-7.70;1.40
316;DHT22;14128;48.686;9.738;2022-12-18T00:08:57;-7.70;1.40
316;DHT22;14128;48.686;9.738;2022-12-18T00:11:25;-7.70;1.40
316;DHT22;14128;48.686;9.738;2022-12-18T00:13:54;-7.70;1.40
316;DHT22;14128;48.686;9.738;2022-12-18T00:16:24;-7.70;1.40
316;DHT22;14128;48.686;9.738;2022-12-18T00:18:52;-7.70;1.40
316;DHT22;14128;48.686;9.738;2022-12-18T00:21:19;-7.80;1.40
316;DHT22;14128;48.686;9.738;2022-12-18T00:23:48;-7.70;1.40
316;DHT22;14128;48.686;9.738;2022-12-18T00:26:18;-7.70;1.40
316;DHT22;14128;48.686;9.738;2022-12-18T00:28:46;-7.70;1.40
316;DHT22;14128;48.686;9.738;2022-12-18T00:31:16;-7.70;1.40
316;DHT22;14128;48.686;9.738;2022-12-18T00:33:45;-7.80;1.40
316;DHT22;14128;48.686;9.738;2022-12-18T00:36:13;-7.70;1.40
316;DHT22;14128;48.686;9.738;2022-12-18T00:38:41;-7.70;1.40
316;DHT22;14128;48.686;9.738;2022-12-18T00:41:09;-7.70;1.40
316;DHT22;14128;48.686;9.738;2022-12-18T00:43:37;-7.70;1.40
316;DHT22;14128;48.686;9.738;2022-12-18T00:46:04;-7.80;1.40
316;DHT22;14128;48.686;9.738;2022-12-18T00:48:31;-7.80;1.40
316;DHT22;14128;48.686;9.738;2022-12-18T00:50:59;-7.80;1.40
316;DHT22;14128;48.686;9.738;2022-12-18T00:53:26;-7.60;1.40
316;DHT22;14128;48.686;9.738;2022-12-18T00:55:52;-7.70;1.40
316;DHT22;14128;48.686;9.738;2022-12-18T00:58:19;-7.80;1.40
316;DHT22;14128;48.686;9.738;2022-12-18T01:00:46;-7.80;1.40
316;DHT22;14128;48.686;9.738;2022-12-18T01:03:13;-7.80;1.40
316;DHT22;14128;48.686;9.738;2022-12-18T01:05:41;-7.80;1.40
316;DHT22;14128;48.686;9.738;2022-12-18T01:08:09;-7.80;1.40
316;DHT22;14128;48.686;9.738;2022-12-18T01:10:36;-7.80;1.40
316;DHT22;14128;48.686;9.738;2022-12-18T01:13:03;-7.90;1.40
316;DHT22;14128;48.686;9.738;2022-12-18T01:15:29;-7.90;1.40
316;DHT22;14128;48.686;9.738;2022-12-18T01:17:56;-7.80;1.40
316;DHT22;14128;48.686;9.738;2022-12-18T01:20:23;-7.70;1.40
316;DHT22;14128;48.686;9.738;2022-12-18T01:22:50;-7.70;1.40
316;DHT22;14128;48.686;9.738;2022-12-18T01:25:18;-7.70;1.40
316;DHT22;14128;48.686;9.738;2022-12-18T01:27:45;-7.80;1.40
316;DHT22;14128;48.686;9.738;2022-12-18T01:30:12;-7.80;1.40
316;DHT22;14128;48.686;9.738;2022-12-18T01:32:39;-7.70;1.40
316;DHT22;14128;48.686;9.738;2022-12-18T01:35:06;-7.70;1.40
316;DHT22;14128;48.686;9.738;2022-12-18T01:37:33;-7.70;1.40
316;DHT22;14128;48.686;9.738;2022-12-18T01:40:00;-7.60;1.40
316;DHT22;14128;48.686;9.738;2022-12-18T01:42:28;-7.70;1.40
316;DHT22;14128;48.686;9.738;2022-12-18T01:45:04;-7.60;1.40
316;DHT22;14128;48.686;9.738;2022-12-18T01:47:37;-7.70;1.40
316;DHT22;14128;48.686;9.738;2022-12-18T01:50:08;-7.70;1.40
316;DHT22;14128;48.686;9.738;2022-12-18T01:52:36;-7.70;1.40
316;DHT22;14128;48.686;9.738;2022-12-18T01:55:05;-7.70;1.40
316;DHT22;14128;48.686;9.738;2022-12-18T01:57:34;-7.80;1.40
316;DHT22;14128;48.686;9.738;2022-12-18T02:00:03;-7.80;1.40
316;DHT22;14128;48.686;9.738;2022-12-18T02:02:31;-7.70;1.40
316;DHT22;14128;48.686;9.738;2022-12-18T02:04:58;-7.80;1.40
316;DHT22;14128;48.686;9.738;2022-12-18T02:07:32;-7.70;1.40
316;DHT22;14128;48.686;9.738;2022-12-18T02:10:03;-7.50;1.40
316;DHT22;14128;48.686;9.738;2022-12-18T02:12:41;-7.50;1.40
316;DHT22;14128;48.686;9.738;2022-12-18T02:15:14;-7.40;1.40
316;DHT22;14128;48.686;9.738;2022-12-18T02:17:45;-7.40;1.40
316;DHT22;14128;48.686;9.738;2022-12-18T02:20:17;-7.50;1.40
316;DHT22;14128;48.686;9.738;2022-12-18T02:22:58;-7.40;1.40
316;DHT22;14128;48.686;9.738;2022-12-18T02:25:40;-7.20;1.40
316;DHT22;14128;48.686;9.738;2022-12-18T02:28:15;-7.30;1.40
316;DHT22;14128;48.686;9.738;2022-12-18T02:30:43;-7.20;1.40
316;DHT22;14128;48.686;9.738;2022-12-18T02:33:11;-7.20;1.40
316;DHT22;14128;48.686;9.738;2022-12-18T02:35:40;-7.10;1.40
316;DHT22;14128;48.686;9.738;2022-12-18T02:38:07;-7.10;1.40
316;DHT22;14128;48.686;9.738;2022-12-18T02:40:35;-7.00;1.40
316;DHT22;14128;48.686;9.738;2022-12-18T02:43:07;-7.00;1.40
316;DHT22;14128;48.686;9.738;2022-12-18T02:45:45;-7.00;1.40
316;DHT22;14128;48.686;9.738;2022-12-18T02:48:12;-6.90;1.40
316;DHT22;14128;48.686;9.738;2022-12-18T02:50:45;-6.90;1.40
316;DHT22;14128;48.686;9.738;2022-12-18T02:53:22;-6.80;1.40
316;DHT22;14128;48.686;9.738;2022-12-18T02:55:58;-6.80;1.40
316;DHT22;14128;48.686;9.738;2022-12-18T02:58:36;-6.70;1.40
316;DHT22;14128;48.686;9.738;2022-12-18T03:01:11;-6.70;1.40
316;DHT22;14128;48.686;9.738;2022-12-18T03:03:43;-6.60;1.40
316;DHT22;14128;48.686;9.738;2022-12-18T03:06:18;-6.50;1.40
316;DHT22;14128;48.686;9.738;2022-12-18T03:08:49;-6.50;1.40
316;DHT22;14128;48.686;9.738;2022-12-18T03:11:17;-6.50;1.40
316;DHT22;14128;48.686;9.738;2022-12-18T03:14:06;-6.50;1.40
316;DHT22;14128;48.686;9.738;2022-12-18T03:16:36;-6.40;1.40
316;DHT22;14128;48.686;9.738;2022-12-18T03:19:05;-6.30;1.40
316;DHT22;14128;48.686;9.738;2022-12-18T03:21:37;-6.30;1.40
316;DHT22;14128;48.686;9.738;2022-12-18T03:24:07;-6.20;1.40
316;DHT22;14128;48.686;9.738;2022-12-18T03:26:37;-6.10;1.40
316;DHT22;14128;48.686;9.738;2022-12-18T03:29:08;-6.00;1.40
316;DHT22;14128;48.686;9.738;2022-12-18T03:31:38;-5.90;1.40
316;DHT22;14128;48.686;9.738;2022-12-18T03:34:09;-5.90;1.40
316;DHT22;14128;48.686;9.738;2022-12-18T03:36:38;-5.80;1.40
316;DHT22;14128;48.686;9.738;2022-12-18T03:39:04;-5.80;1.40
316;DHT22;14128;48.686;9.738;2022-12-18T03:41:33;-5.70;1.40
316;DHT22;14128;48.686;9.738;2022-12-18T03:44:05;-5.60;1.40
316;DHT22;14128;48.686;9.738;2022-12-18T03:46:43;-5.50;1.40
316;DHT22;14128;48.686;9.738;2022-12-18T03:49:16;-5.50;1.40
316;DHT22;14128;48.686;9.738;2022-12-18T03:51:51;-5.50;1.40
316;DHT22;14128;48.686;9.738;2022-12-18T03:54:20;-5.50;1.40
316;DHT22;14128;48.686;9.738;2022-12-18T03:56:51;-5.40;1.40
316;DHT22;14128;48.686;9.738;2022-12-18T03:59:19;-5.40;1.40
316;DHT22;14128;48.686;9.738;2022-12-18T04:01:49;-5.40;1.40
316;DHT22;14128;48.686;9.738;2022-12-18T04:04:18;-5.30;1.40
316;DHT22;14128;48.686;9.738;2022-12-18T04:06:47;-5.30;1.40
316;DHT22;14128;48.686;9.738;2022-12-18T04:09:14;-5.30;1.40
316;DHT22;14128;48.686;9.738;2022-12-18T04:11:42;-5.20;1.40
316;DHT22;14128;48.686;9.738;2022-12-18T04:14:10;-5.10;1.40
316;DHT22;14128;48.686;9.738;2022-12-18T04:16:36;-5.10;1.40
316;DHT22;14128;48.686;9.738;2022-12-18T04:19:05;-5.10;1.40
316;DHT22;14128;48.686;9.738;2022-12-18T04:21:32;-5.10;1.40
316;DHT22;14128;48.686;9.738;2022-12-18T04:23:58;-5.00;1.40
316;DHT22;14128;48.686;9.738;2022-12-18T04:26:25;-5.00;1.40
316;DHT22;14128;48.686;9.738;2022-12-18T04:28:52;-5.00;1.40
316;DHT22;14128;48.686;9.738;2022-12-18T04:31:19;-5.00;1.40
316;DHT22;14128;48.686;9.738;2022-12-18T04:33:45;-4.90;1.40
316;DHT22;14128;48.686;9.738;2022-12-18T04:36:14;-4.90;1.40
316;DHT22;14128;48.686;9.738;2022-12-18T04:38:40;-4.90;1.40
316;DHT22;14128;48.686;9.738;2022-12-18T04:41:07;-4.90;1.40
316;DHT22;14128;48.686;9.738;2022-12-18T04:43:34;-4.90;1.40
316;DHT22;14128;48.686;9.738;2022-12-18T04:46:02;-4.90;1.40
316;DHT22;14128;48.686;9.738;2022-12-18T04:48:29;-4.80;1.40
316;DHT22;14128;48.686;9.738;2022-12-18T04:50:56;-4.80;1.40
316;DHT22;14128;48.686;9.738;2022-12-18T04:53:24;-4.80;1.40
316;DHT22;14128;48.686;9.738;2022-12-18T04:56:01;-4.80;1.40
316;DHT22;14128;48.686;9.738;2022-12-18T04:58:28;-4.80;1.40
316;DHT22;14128;48.686;9.738;2022-12-18T05:00:54;-4.80;1.40
316;DHT22;14128;48.686;9.738;2022-12-18T05:03:21;-4.80;1.40
316;DHT22;14128;48.686;9.738;2022-12-18T05:05:49;-4.80;1.40
316;DHT22;14128;48.686;9.738;2022-12-18T05:08:16;-4.80;1.40
316;DHT22;14128;48.686;9.738;2022-12-18T05:10:44;-4.80;1.40
316;DHT22;14128;48.686;9.738;2022-12-18T05:13:11;-4.80;1.40
316;DHT22;14128;48.686;9.738;2022-12-18T05:15:38;-4.80;1.40
316;DHT22;14128;48.686;9.738;2022-12-18T05:18:04;-4.80;1.40
316;DHT22;14128;48.686;9.738;2022-12-18T05:20:32;-4.70;1.40
316;DHT22;14128;48.686;9.738;2022-12-18T05:22:59;-4.70;1.40
316;DHT22;14128;48.686;9.738;2022-12-18T05:25:25;-4.70;1.40
316;DHT22;14128;48.686;9.738;2022-12-18T05:27:53;-4.70;1.40
316;DHT22;14128;48.686;9.738;2022-12-18T05:30:20;-4.70;1.40
316;DHT22;14128;48.686;9.738;2022-12-18T05:32:47;-4.70;1.40
316;DHT22;14128;48.686;9.738;2022-12-18T05:35:14;-4.70;1.40
316;DHT22;14128;48.686;9.738;2022-12-18T05:37:41;-4.70;1.40
316;DHT22;14128;48.686;9.738;2022-12-18T05:40:09;-4.70;1.40
316;DHT22;14128;48.686;9.738;2022-12-18T05:42:36;-4.70;1.40
316;DHT22;14128;48.686;9.738;2022-12-18T05:45:05;-4.70;1.40
316;DHT22;14128;48.686;9.738;2022-12-18T05:47:32;-4.70;1.40
316;DHT22;14128;48.686;9.738;2022-12-18T05:49:59;-4.70;1.40
316;DHT22;14128;48.686;9.738;2022-12-18T05:52:26;-4.70;1.40
316;DHT22;14128;48.686;9.738;2022-12-18T05:54:52;-4.70;1.40
316;DHT22;14128;48.686;9.738;2022-12-18T05:57:19;-4.80;1.40
316;DHT22;14128;48.686;9.738;2022-12-18T05:59:46;-4.70;1.40
316;DHT22;14128;48.686;9.738;2022-12-18T06:02:14;-4.70;1.40
316;DHT22;14128;48.686;9.738;2022-12-18T06:04:41;-4.80;1.40
316;DHT22;14128;48.686;9.738;2022-12-18T06:07:08;-4.70;1.40
316;DHT22;14128;48.686;9.738;2022-12-18T06:09:34;-4.80;1.40
316;DHT22;14128;48.686;9.738;2022-12-18T06:12:01;-4.70;1.40
316;DHT22;14128;48.686;9.738;2022-12-18T06:14:28;-4.70;1.40
316;DHT22;14128;48.686;9.738;2022-12-18T06:16:55;-4.70;1.40
316;DHT22;14128;48.686;9.738;2022-12-18T06:19:23;-4.70;1.40
316;DHT22;14128;48.686;9.738;2022-12-18T06:21:50;-4.70;1.40
316;DHT22;14128;48.686;9.738;2022-12-18T06:24:16;-4.70;1.40
316;DHT22;14128;48.686;9.738;2022-12-18T06:26:43;-4.70;1.40
316;DHT22;14128;48.686;9.738;2022-12-18T06:29:10;-4.70;1.40
316;DHT22;14128;48.686;9.738;2022-12-18T06:31:37;-4.80;1.40
316;DHT22;14128;48.686;9.738;2022-12-18T06:34:04;-4.70;1.40
316;DHT22;14128;48.686;9.738;2022-12-18T06:36:32;-4.70;1.40
316;DHT22;14128;48.686;9.738;2022-12-18T06:38:59;-4.70;1.40
316;DHT22;14128;48.686;9.738;2022-12-18T06:41:26;-4.70;1.40
316;DHT22;14128;48.686;9.738;2022-12-18T06:43:53;-4.70;1.40
316;DHT22;14128;48.686;9.738;2022-12-18T06:46:20;-4.70;1.40
316;DHT22;14128;48.686;9.738;2022-12-18T06:48:47;-4.70;1.40
316;DHT22;14128;48.686;9.738;2022-12-18T06:51:17;-4.70;1.40
316;DHT22;14128;48.686;9.738;2022-12-18T06:53:45;-4.70;1.40
316;DHT22;14128;48.686;9.738;2022-12-18T06:56:12;-4.70;1.40
316;DHT22;14128;48.686;9.738;2022-12-18T06:58:39;-4.70;1.40
316;DHT22;14128;48.686;9.738;2022-12-18T07:01:07;-4.70;1.40
316;DHT22;14128;48.686;9.738;2022-12-18T07:03:35;-4.70;1.40
316;DHT22;14128;48.686;9.738;2022-12-18T07:06:02;-4.70;1.40
316;DHT22;14128;48.686;9.738;2022-12-18T07:08:29;-4.70;1.40
316;DHT22;14128;48.686;9.738;2022-12-18T07:10:57;-4.70;1.40
316;DHT22;14128;48.686;9.738;2022-12-18T07:13:24;-4.60;1.40
316;DHT22;14128;48.686;9.738;2022-12-18T07:15:52;-4.70;1.40
316;DHT22;14128;48.686;9.738;2022-12-18T07:18:18;-4.70;1.40
316;DHT22;14128;48.686;9.738;2022-12-18T07:20:45;-4.70;1.40
316;DHT22;14128;48.686;9.738;2022-12-18T07:23:12;-4.60;1.40
316;DHT22;14128;48.686;9.738;2022-12-18T07:25:39;-4.60;1.40
316;DHT22;14128;48.686;9.738;2022-12-18T07:28:07;-4.60;1.40
316;DHT22;14128;48.686;9.738;2022-12-18T07:30:36;-4.60;1.40
316;DHT22;14128;48.686;9.738;2022-12-18T07:33:03;-4.60;1.40
316;DHT22;14128;48.686;9.738;2022-12-18T07:35:30;-4.60;1.40
316;DHT22;14128;48.686;9.738;2022-12-18T07:37:57;-4.60;1.40
316;DHT22;14128;48.686;9.738;2022-12-18T07:40:23;-4.60;1.40
316;DHT22;14128;48.686;9.738;2022-12-18T07:42:50;-4.50;1.40
316;DHT22;14128;48.686;9.738;2022-12-18T07:45:18;-4.50;1.40
316;DHT22;14128;48.686;9.738;2022-12-18T07:47:45;-4.40;1.40
316;DHT22;14128;48.686;9.738;2022-12-18T07:50:12;-4.40;1.40
316;DHT22;14128;48.686;9.738;2022-12-18T07:52:39;-4.40;1.40
316;DHT22;14128;48.686;9.738;2022-12-18T07:55:06;-4.40;1.40
316;DHT22;14128;48.686;9.738;2022-12-18T07:57:33;-4.30;1.40
316;DHT22;14128;48.686;9.738;2022-12-18T08:00:00;-4.30;1.40
316;DHT22;14128;48.686;9.738;2022-12-18T08:02:30;-4.30;1.40
316;DHT22;14128;48.686;9.738;2022-12-18T08:04:57;-4.30;1.40
316;DHT22;14128;48.686;9.738;2022-12-18T08:07:24;-4.20;1.40
316;DHT22;14128;48.686;9.738;2022-12-18T08:09:51;-4.20;1.40
316;DHT22;14128;48.686;9.738;2022-12-18T08:12:18;-4.10;1.40
316;DHT22;14128;48.686;9.738;2022-12-18T08:14:44;-4.10;1.40
316;DHT22;14128;48.686;9.738;2022-12-18T08:17:11;-4.00;1.40
316;DHT22;14128;48.686;9.738;2022-12-18T08:19:39;-4.00;1.40
316;DHT22;14128;48.686;9.738;2022-12-18T08:22:06;-4.00;1.40
316;DHT22;14128;48.686;9.738;2022-12-18T08:24:33;-3.90;1.40
316;DHT22;14128;48.686;9.738;2022-12-18T08:27:00;-3.80;1.40
316;DHT22;14128;48.686;9.738;2022-12-18T08:29:27;-3.80;1.40
316;DHT22;14128;48.686;9.738;2022-12-18T08:31:53;-3.80;1.40
316;DHT22;14128;48.686;9.738;2022-12-18T08:34:20;-3.70;1.40
316;DHT22;14128;48.686;9.738;2022-12-18T08:36:48;-3.60;1.40
316;DHT22;14128;48.686;9.738;2022-12-18T08:39:15;-3.60;1.40
316;DHT22;14128;48.686;9.738;2022-12-18T08:41:42;-3.60;1.40
316;DHT22;14128;48.686;9.738;2022-12-18T08:44:29;-3.60;1.40
316;DHT22;14128;48.686;9.738;2022-12-18T08:47:04;-3.50;1.40
316;DHT22;14128;48.686;9.738;2022-12-18T08:49:31;-3.50;1.40
316;DHT22;14128;48.686;9.738;2022-12-18T08:51:59;-3.50;1.40
316;DHT22;14128;48.686;9.738;2022-12-18T08:54:26;-3.50;1.40
316;DHT22;14128;48.686;9.738;2022-12-18T08:56:53;-3.50;1.40
316;DHT22;14128;48.686;9.738;2022-12-18T08:59:20;-3.50;1.40
316;DHT22;14128;48.686;9.738;2022-12-18T09:01:47;-3.40;1.40
316;DHT22;14128;48.686;9.738;2022-12-18T09:04:14;-3.30;1.40
316;DHT22;14128;48.686;9.738;2022-12-18T09:06:41;-3.20;1.40
316;DHT22;14128;48.686;9.738;2022-12-18T09:09:10;-3.10;1.40
316;DHT22;14128;48.686;9.738;2022-12-18T09:11:37;-3.00;1.40
316;DHT22;14128;48.686;9.738;2022-12-18T09:14:04;-2.90;1.40
316;DHT22;14128;48.686;9.738;2022-12-18T09:16:31;-2.90;1.40
316;DHT22;14128;48.686;9.738;2022-12-18T09:19:01;-2.80;1.40
316;DHT22;14128;48.686;9.738;2022-12-18T09:21:30;-2.60;1.40
316;DHT22;14128;48.686;9.738;2022-12-18T09:23:57;-2.60;1.40
316;DHT22;14128;48.686;9.738;2022-12-18T09:26:26;-2.70;1.40
316;DHT22;14128;48.686;9.738;2022-12-18T09:28:53;-2.70;1.40
316;DHT22;14128;48.686;9.738;2022-12-18T09:31:22;-2.70;1.40
316;DHT22;14128;48.686;9.738;2022-12-18T09:33:49;-2.70;1.40
316;DHT22;14128;48.686;9.738;2022-12-18T09:36:16;-2.70;1.40
316;DHT22;14128;48.686;9.738;2022-12-18T09:38:44;-2.70;1.40
316;DHT22;14128;48.686;9.738;2022-12-18T09:41:32;-2.70;1.40
316;DHT22;14128;48.686;9.738;2022-12-18T09:44:05;-2.60;1.40
316;DHT22;14128;48.686;9.738;2022-12-18T09:46:39;-2.70;1.40
316;DHT22;14128;48.686;9.738;2022-12-18T09:49:12;-2.60;1.40
316;DHT22;14128;48.686;9.738;2022-12-18T09:51:43;-2.70;1.40
316;DHT22;14128;48.686;9.738;2022-12-18T09:54:16;-2.70;1.40
316;DHT22;14128;48.686;9.738;2022-12-18T09:56:45;-2.70;1.40
316;DHT22;14128;48.686;9.738;2022-12-18T09:59:20;-2.60;1.40
316;DHT22;14128;48.686;9.738;2022-12-18T10:01:47;-2.70;1.40
316;DHT22;14128;48.686;9.738;2022-12-18T10:04:14;-2.70;1.40
316;DHT22;14128;48.686;9.738;2022-12-18T10:06:46;-2.70;1.40
316;DHT22;14128;48.686;9.738;2022-12-18T10:09:24;-2.80;1.40
316;DHT22;14128;48.686;9.738;2022-12-18T10:11:59;-2.80;1.40
316;DHT22;14128;48.686;9.738;2022-12-18T10:14:35;-2.70;1.40
316;DHT22;14128;48.686;9.738;2022-12-18T10:17:13;-2.70;1.40
316;DHT22;14128;48.686;9.738;2022-12-18T10:19:47;-2.80;1.40
316;DHT22;14128;48.686;9.738;2022-12-18T10:25:09;-2.70;1.40
316;DHT22;14128;48.686;9.738;2022-12-18T10:27:40;-2.70;1.40
316;DHT22;14128;48.686;9.738;2022-12-18T10:30:15;-2.70;1.40
316;DHT22;14128;48.686;9.738;2022-12-18T10:32:42;-2.70;1.40
316;DHT22;14128;48.686;9.738;2022-12-18T10:35:16;-2.60;1.40
316;DHT22;14128;48.686;9.738;2022-12-18T10:38:03;-2.60;1.40
316;DHT22;14128;48.686;9.738;2022-12-18T10:40:31;-2.50;1.40
316;DHT22;14128;48.686;9.738;2022-12-18T10:43:04;-2.50;1.40
316;DHT22;14128;48.686;9.738;2022-12-18T10:45:32;-2.50;1.40
316;DHT22;14128;48.686;9.738;2022-12-18T10:47:59;-2.50;1.40
316;DHT22;14128;48.686;9.738;2022-12-18T10:50:29;-2.50;1.40
316;DHT22;14128;48.686;9.738;2022-12-18T10:52:58;-2.40;1.40
316;DHT22;14128;48.686;9.738;2022-12-18T10:55:30;-2.40;1.40
316;DHT22;14128;48.686;9.738;2022-12-18T10:58:13;-2.30;1.40
316;DHT22;14128;48.686;9.738;2022-12-18T11:00:43;-2.30;1.40
316;DHT22;14128;48.686;9.738;2022-12-18T11:03:29;-2.20;1.40
316;DHT22;14128;48.686;9.738;2022-12-18T11:06:05;-2.20;1.40
316;DHT22;14128;48.686;9.738;2022-12-18T11:08:33;-2.10;1.40
316;DHT22;14128;48.686;9.738;2022-12-18T11:11:00;-2.00;1.40
316;DHT22;14128;48.686;9.738;2022-12-18T11:13:29;-2.00;1.40
316;DHT22;14128;48.686;9.738;2022-12-18T11:15:58;-1.90;1.40
316;DHT22;14128;48.686;9.738;2022-12-18T11:18:27;-1.80;1.40
316;DHT22;14128;48.686;9.738;2022-12-18T11:20:56;-1.70;1.40
316;DHT22;14128;48.686;9.738;2022-12-18T11:23:24;-1.60;1.40
316;DHT22;14128;48.686;9.738;2022-12-18T11:25:54;-1.50;1.40
316;DHT22;14128;48.686;9.738;2022-12-18T11:28:27;-1.50;1.40
316;DHT22;14128;48.686;9.738;2022-12-18T11:31:19;-1.40;1.40
316;DHT22;14128;48.686;9.738;2022-12-18T11:33:54;-1.40;1.40
316;DHT22;14128;48.686;9.738;2022-12-18T11:36:23;-1.40;1.40
316;DHT22;14128;48.686;9.738;2022-12-18T11:38:53;-1.30;1.40
316;DHT22;14128;48.686;9.738;2022-12-18T11:41:25;-1.20;1.40
316;DHT22;14128;48.686;9.738;2022-12-18T11:44:18;-1.10;1.40
316;DHT22;14128;48.686;9.738;2022-12-18T11:46:51;-1.20;1.40
316;DHT22;14128;48.686;9.738;2022-12-18T11:49:22;-1.10;1.40
316;DHT22;14128;48.686;9.738;2022-12-18T11:51:55;-1.10;1.40
316;DHT22;14128;48.686;9.738;2022-12-18T11:54:25;-1.10;1.40
316;DHT22;14128;48.686;9.738;2022-12-18T11:56:56;-1.20;1.40
316;DHT22;14128;48.686;9.738;2022-12-18T11:59:30;-1.20;1.40
316;DHT22;14128;48.686;9.738;2022-12-18T12:02:17;-1.10;1.40
316;DHT22;14128;48.686;9.738;2022-12-18T12:05:04;-1.20;1.40
316;DHT22;14128;48.686;9.738;2022-12-18T12:07:43;-1.30;1.40
316;DHT22;14128;48.686;9.738;2022-12-18T12:10:29;-1.40;1.40
316;DHT22;14128;48.686;9.738;2022-12-18T12:13:14;-1.30;1.40
316;DHT22;14128;48.686;9.738;2022-12-18T12:15:48;-1.30;1.40
316;DHT22;14128;48.686;9.738;2022-12-18T12:18:29;-1.20;1.40
316;DHT22;14128;48.686;9.738;2022-12-18T12:21:06;-1.20;1.40
316;DHT22;14128;48.686;9.738;2022-12-18T12:23:40;-1.30;1.40
316;DHT22;14128;48.686;9.738;2022-12-18T12:26:12;-1.30;1.40
316;DHT22;14128;48.686;9.738;2022-12-18T12:31:46;-1.30;1.40
316;DHT22;14128;48.686;9.738;2022-12-18T12:34:19;-1.30;1.40
316;DHT22;14128;48.686;9.738;2022-12-18T12:36:56;-1.40;1.40
316;DHT22;14128;48.686;9.738;2022-12-18T12:39:31;-1.40;1.40
316;DHT22;14128;48.686;9.738;2022-12-18T12:42:00;-1.30;1.40
316;DHT22;14128;48.686;9.738;2022-12-18T12:44:50;-1.20;1.40
316;DHT22;14128;48.686;9.738;2022-12-18T12:47:21;-1.10;1.40
316;DHT22;14128;48.686;9.738;2022-12-18T12:49:54;-1.00;1.40
316;DHT22;14128;48.686;9.738;2022-12-18T12:52:28;-0.90;1.40
316;DHT22;14128;48.686;9.738;2022-12-18T12:54:58;-0.90;1.40
316;DHT22;14128;48.686;9.738;2022-12-18T12:57:31;-0.80;1.40
316;DHT22;14128;48.686;9.738;2022-12-18T13:00:03;-0.80;1.40
316;DHT22;14128;48.686;9.738;2022-12-18T13:02:37;-0.70;1.40
316;DHT22;14128;48.686;9.738;2022-12-18T13:05:16;-0.70;1.40
316;DHT22;14128;48.686;9.738;2022-12-18T13:07:49;-0.70;1.40
316;DHT22;14128;48.686;9.738;2022-12-18T13:13:10;-0.70;1.40
316;DHT22;14128;48.686;9.738;2022-12-18T13:15:39;-0.80;1.40
316;DHT22;14128;48.686;9.738;2022-12-18T13:18:27;-0.70;1.40
316;DHT22;14128;48.686;9.738;2022-12-18T13:21:17;-0.80;1.40
316;DHT22;14128;48.686;9.738;2022-12-18T13:23:45;-0.80;1.40
316;DHT22;14128;48.686;9.738;2022-12-18T13:26:32;-0.90;1.40
316;DHT22;14128;48.686;9.738;2022-12-18T13:29:00;-0.90;1.40
316;DHT22;14128;48.686;9.738;2022-12-18T13:34:33;-1.00;1.40
316;DHT22;14128;48.686;9.738;2022-12-18T13:43:27;-1.10;1.40
316;DHT22;14128;48.686;9.738;2022-12-18T13:46:04;-1.10;1.40
316;DHT22;14128;48.686;9.738;2022-12-18T13:48:33;-1.10;1.40
316;DHT22;14128;48.686;9.738;2022-12-18T13:51:03;-1.20;1.40
316;DHT22;14128;48.686;9.738;2022-12-18T13:53:34;-1.30;1.40
316;DHT22;14128;48.686;9.738;2022-12-18T13:56:04;-1.20;1.40
316;DHT22;14128;48.686;9.738;2022-12-18T13:58:31;-1.20;1.40
316;DHT22;14128;48.686;9.738;2022-12-18T14:00:58;-1.10;1.40
316;DHT22;14128;48.686;9.738;2022-12-18T14:03:29;-1.00;1.40
316;DHT22;14128;48.686;9.738;2022-12-18T14:05:59;-1.10;1.40
316;DHT22;14128;48.686;9.738;2022-12-18T14:08:32;-1.20;1.40
316;DHT22;14128;48.686;9.738;2022-12-18T14:11:02;-1.20;1.40
316;DHT22;14128;48.686;9.738;2022-12-18T14:13:31;-1.40;1.40
316;DHT22;14128;48.686;9.738;2022-12-18T14:16:01;-1.40;1.40
316;DHT22;14128;48.686;9.738;2022-12-18T14:18:39;-1.50;1.40
316;DHT22;14128;48.686;9.738;2022-12-18T14:21:17;-1.50;1.40
316;DHT22;14128;48.686;9.738;2022-12-18T14:23:45;-1.60;1.40
316;DHT22;14128;48.686;9.738;2022-12-18T14:26:25;-1.60;1.40
316;DHT22;14128;48.686;9.738;2022-12-18T14:28:54;-1.70;1.40
316;DHT22;14128;48.686;9.738;2022-12-18T14:31:22;-1.80;1.40
316;DHT22;14128;48.686;9.738;2022-12-18T14:33:50;-2.00;1.40
316;DHT22;14128;48.686;9.738;2022-12-18T14:36:18;-2.10;1.40
316;DHT22;14128;48.686;9.738;2022-12-18T14:38:49;-2.20;1.40
316;DHT22;14128;48.686;9.738;2022-12-18T14:41:18;-2.30;1.40
316;DHT22;14128;48.686;9.738;2022-12-18T14:43:47;-2.50;1.40
316;DHT22;14128;48.686;9.738;2022-12-18T14:46:36;-2.60;1.40
316;DHT22;14128;48.686;9.738;2022-12-18T14:49:05;-2.80;1.40
316;DHT22;14128;48.686;9.738;2022-12-18T14:51:47;-2.90;1.40
316;DHT22;14128;48.686;9.738;2022-12-18T14:54:16;-3.00;1.40
316;DHT22;14128;48.686;9.738;2022-12-18T14:56:45;-3.00;1.40
316;DHT22;14128;48.686;9.738;2022-12-18T14:59:15;-3.20;1.40
316;DHT22;14128;48.686;9.738;2022-12-18T15:01:46;-3.20;1.40
316;DHT22;14128;48.686;9.738;2022-12-18T15:04:25;-3.40;1.40
316;DHT22;14128;48.686;9.738;2022-12-18T15:07:11;-3.40;1.40
316;DHT22;14128;48.686;9.738;2022-12-18T15:09:41;-3.60;1.40
316;DHT22;14128;48.686;9.738;2022-12-18T15:12:22;-3.70;1.40
316;DHT22;14128;48.686;9.738;2022-12-18T15:14:52;-3.70;1.40
316;DHT22;14128;48.686;9.738;2022-12-18T15:17:20;-3.80;1.40
316;DHT22;14128;48.686;9.738;2022-12-18T15:19:49;-3.90;1.40
316;DHT22;14128;48.686;9.738;2022-12-18T15:22:20;-4.00;1.40
316;DHT22;14128;48.686;9.738;2022-12-18T15:24:48;-4.10;1.40
316;DHT22;14128;48.686;9.738;2022-12-18T15:27:25;-4.10;1.40
316;DHT22;14128;48.686;9.738;2022-12-18T15:30:18;-4.20;1.40
316;DHT22;14128;48.686;9.738;2022-12-18T15:32:46;-4.30;1.40
316;DHT22;14128;48.686;9.738;2022-12-18T15:35:18;-4.30;1.40
316;DHT22;14128;48.686;9.738;2022-12-18T15:37:46;-4.30;1.40
316;DHT22;14128;48.686;9.738;2022-12-18T15:40:13;-4.30;1.40
316;DHT22;14128;48.686;9.738;2022-12-18T15:42:40;-4.30;1.40
316;DHT22;14128;48.686;9.738;2022-12-18T15:45:26;-4.40;1.40
316;DHT22;14128;48.686;9.738;2022-12-18T15:47:53;-4.40;1.40
316;DHT22;14128;48.686;9.738;2022-12-18T15:50:20;-4.50;1.40
316;DHT22;14128;48.686;9.738;2022-12-18T15:52:49;-4.40;1.40
316;DHT22;14128;48.686;9.738;2022-12-18T15:55:19;-4.50;1.40
316;DHT22;14128;48.686;9.738;2022-12-18T15:58:03;-4.50;1.40
316;DHT22;14128;48.686;9.738;2022-12-18T16:00:34;-4.40;1.40
316;DHT22;14128;48.686;9.738;2022-12-18T16:03:01;-4.50;1.40
316;DHT22;14128;48.686;9.738;2022-12-18T16:05:29;-4.50;1.40
316;DHT22;14128;48.686;9.738;2022-12-18T16:07:56;-4.50;1.40
316;DHT22;14128;48.686;9.738;2022-12-18T16:10:24;-4.50;1.40
316;DHT22;14128;48.686;9.738;2022-12-18T16:12:51;-4.60;1.40
316;DHT22;14128;48.686;9.738;2022-12-18T16:15:18;-4.60;1.40
316;DHT22;14128;48.686;9.738;2022-12-18T16:17:47;-4.50;1.40
316;DHT22;14128;48.686;9.738;2022-12-18T16:20:15;-4.50;1.40
316;DHT22;14128;48.686;9.738;2022-12-18T16:22:43;-4.50;1.40
316;DHT22;14128;48.686;9.738;2022-12-18T16:25:17;-4.60;1.40
316;DHT22;14128;48.686;9.738;2022-12-18T16:27:44;-4.60;1.40
316;DHT22;14128;48.686;9.738;2022-12-18T16:30:13;-4.60;1.40
316;DHT22;14128;48.686;9.738;2022-12-18T16:32:40;-4.60;1.40
316;DHT22;14128;48.686;9.738;2022-12-18T16:35:10;-4.70;1.40
316;DHT22;14128;48.686;9.738;2022-12-18T16:37:37;-4.70;1.40
316;DHT22;14128;48.686;9.738;2022-12-18T16:40:05;-4.80;1.40
316;DHT22;14128;48.686;9.738;2022-12-18T16:42:34;-4.70;1.40
316;DHT22;14128;48.686;9.738;2022-12-18T16:45:03;-4.70;1.40
316;DHT22;14128;48.686;9.738;2022-12-18T16:47:30;-4.70;1.40
316;DHT22;14128;48.686;9.738;2022-12-18T16:49:57;-4.70;1.40
316;DHT22;14128;48.686;9.738;2022-12-18T16:52:25;-4.70;1.40
316;DHT22;14128;48.686;9.738;2022-12-18T16:54:52;-4.70;1.40